createdAt,value
2019-06-01T00:00:24.815Z,90.60
2019-06-01T00:02:57.217Z,90.40
2019-06-01T00:05:27.712Z,90.20
2019-06-01T00:07:58.255Z,90.00
2019-06-01T00:10:27.590Z,90.10
2019-06-01T00:12:56.989Z,90.00
2019-06-01T00:15:26.631Z,90.30
2019-06-01T00:17:55.937Z,90.30
2019-06-01T00:20:25.238Z,90.30
2019-06-01T00:22:54.593Z,90.60
2019-06-01T00:25:23.871Z,90.60
2019-06-01T00:27:53.223Z,90.90
2019-06-01T00:30:27.057Z,90.60
2019-06-01T00:32:54.604Z,90.30
2019-06-01T00:35:23.935Z,90.40
2019-06-01T00:37:53.251Z,90.70
2019-06-01T00:40:22.809Z,90.90
2019-06-01T00:42:52.500Z,90.50
2019-06-01T00:45:22.042Z,90.20
2019-06-01T00:47:52.909Z,90.40
2019-06-01T00:50:22.497Z,90.60
2019-06-01T00:52:51.910Z,91.10
2019-06-01T00:55:21.595Z,91.20
2019-06-01T00:57:51.899Z,90.90
2019-06-01T01:00:21.584Z,91.20
2019-06-01T01:02:52.120Z,91.40
2019-06-01T01:05:22.216Z,91.70
2019-06-01T01:07:52.138Z,91.70
2019-06-01T01:10:22.816Z,91.70
2019-06-01T01:13:10.124Z,91.30
2019-06-01T01:15:39.462Z,91.20
2019-06-01T01:18:09.358Z,91.50
2019-06-01T01:20:38.828Z,92.00
2019-06-01T01:23:08.716Z,91.60
2019-06-01T01:25:39.351Z,91.60
2019-06-01T01:28:08.988Z,91.40
2019-06-01T01:30:38.317Z,91.30
2019-06-01T01:33:07.839Z,91.60
2019-06-01T01:35:37.227Z,91.70
2019-06-01T01:38:07.023Z,91.80
2019-06-01T01:40:36.497Z,92.10
2019-06-01T01:43:05.829Z,92.30
2019-06-01T01:45:35.185Z,92.20
2019-06-01T01:48:04.550Z,91.90
2019-06-01T01:50:33.877Z,91.50
2019-06-01T01:53:04.194Z,91.30
2019-06-01T01:55:33.507Z,91.40
2019-06-01T01:58:02.883Z,91.30
2019-06-01T02:00:38.370Z,91.30
2019-06-01T02:03:08.501Z,91.50
2019-06-01T02:05:38.007Z,91.90
2019-06-01T02:08:09.134Z,91.50
2019-06-01T02:10:38.610Z,91.40
2019-06-01T02:13:08.091Z,91.80
2019-06-01T02:15:40.350Z,91.60
2019-06-01T02:18:09.726Z,92.00
2019-06-01T02:20:39.039Z,92.10
2019-06-01T02:23:08.348Z,92.10
2019-06-01T02:25:37.743Z,92.20
2019-06-01T02:28:07.047Z,92.00
2019-06-01T02:30:37.371Z,92.10
2019-06-01T02:33:06.797Z,91.80
2019-06-01T02:35:36.253Z,92.00
2019-06-01T02:38:05.992Z,92.10
2019-06-01T02:40:35.676Z,92.10
2019-06-01T02:43:06.698Z,92.30
2019-06-01T02:45:36.359Z,92.50
2019-06-01T02:48:06.547Z,92.50
2019-06-01T02:50:37.022Z,92.90
2019-06-01T02:53:06.425Z,92.10
2019-06-01T02:55:35.788Z,92.50
2019-06-01T02:58:06.878Z,92.70
2019-06-01T03:00:49.307Z,92.40
2019-06-01T03:03:19.805Z,92.30
2019-06-01T03:05:50.762Z,92.30
2019-06-01T03:08:20.416Z,92.70
2019-06-01T03:10:52.332Z,92.90
2019-06-01T03:13:23.278Z,92.80
2019-06-01T03:15:54.646Z,93.00
2019-06-01T03:18:25.916Z,92.90
2019-06-01T03:20:57.750Z,92.90
2019-06-01T03:23:29.388Z,92.40
2019-06-01T03:26:00.465Z,92.10
2019-06-01T03:28:33.114Z,91.90
2019-06-01T03:31:03.424Z,91.80
2019-06-01T03:33:33.417Z,92.10
2019-06-01T03:36:02.903Z,92.50
2019-06-01T03:38:32.221Z,92.60
2019-06-01T03:41:02.096Z,92.50
2019-06-01T03:43:31.473Z,92.30
2019-06-01T03:46:00.859Z,92.40
2019-06-01T03:48:30.161Z,92.80
2019-06-01T03:50:59.475Z,92.80
2019-06-01T03:53:28.797Z,92.70
2019-06-01T03:55:58.255Z,92.80
2019-06-01T03:58:27.636Z,93.00
2019-06-01T04:00:56.983Z,93.00
2019-06-01T04:03:28.306Z,93.10
2019-06-01T04:05:58.819Z,92.80
2019-06-01T04:08:28.254Z,92.50
2019-06-01T04:10:57.588Z,92.90
2019-06-01T04:13:27.751Z,92.70
2019-06-01T04:15:57.160Z,92.10
2019-06-01T04:18:27.079Z,92.50
2019-06-01T04:20:56.395Z,92.50
2019-06-01T04:23:27.161Z,92.30
2019-06-01T04:25:56.675Z,92.40
2019-06-01T04:28:26.956Z,92.70
2019-06-01T04:30:56.551Z,93.20
2019-06-01T04:33:26.397Z,93.20
2019-06-01T04:36:00.635Z,93.20
2019-06-01T04:38:31.549Z,92.90
2019-06-01T04:41:00.895Z,92.90
2019-06-01T04:43:30.442Z,92.70
2019-06-01T04:45:59.796Z,92.60
2019-06-01T04:48:29.584Z,92.60
2019-06-01T04:50:59.611Z,92.70
2019-06-01T04:53:28.990Z,92.70
2019-06-01T04:55:58.835Z,93.00
2019-06-01T04:58:28.111Z,93.60
2019-06-01T05:00:57.999Z,93.30
2019-06-01T05:03:27.466Z,93.00
2019-06-01T05:05:56.827Z,92.60
2019-06-01T05:08:26.127Z,92.70
2019-06-01T05:10:55.447Z,92.60
2019-06-01T05:13:24.931Z,92.90
2019-06-01T05:15:54.265Z,92.70
2019-06-01T05:18:23.573Z,92.80
2019-06-01T05:20:52.967Z,93.00
2019-06-01T05:23:22.440Z,92.60
2019-06-01T05:25:53.380Z,92.80
2019-06-01T05:28:22.895Z,93.10
2019-06-01T05:30:52.216Z,93.10
2019-06-01T05:33:36.451Z,93.20
2019-06-01T05:35:52.655Z,93.20
2019-06-01T05:38:23.062Z,93.20
2019-06-01T05:40:53.076Z,93.20
2019-06-01T05:43:23.418Z,93.20
2019-06-01T05:45:52.823Z,93.40
2019-06-01T05:48:26.597Z,93.40
2019-06-01T05:50:53.199Z,93.30
2019-06-01T05:53:24.595Z,93.10
2019-06-01T05:55:54.200Z,93.10
2019-06-01T05:58:23.503Z,92.90
2019-06-01T06:00:52.940Z,92.60
2019-06-01T06:03:39.311Z,92.40
2019-06-01T06:05:53.479Z,92.90
2019-06-01T06:08:22.958Z,93.00
2019-06-01T06:10:52.511Z,92.80
2019-06-01T06:13:21.821Z,93.00
2019-06-01T06:15:51.287Z,92.90
2019-06-01T06:18:20.606Z,93.00
2019-06-01T06:20:49.976Z,92.70
2019-06-01T06:23:20.443Z,93.00
2019-06-01T06:25:50.157Z,92.80
2019-06-01T06:28:20.745Z,92.50
2019-06-01T06:30:53.147Z,93.00
2019-06-01T06:33:26.349Z,93.30
2019-06-01T06:35:57.438Z,93.10
2019-06-01T06:38:26.995Z,92.90
2019-06-01T06:40:58.695Z,92.50
2019-06-01T06:43:32.831Z,92.20
2019-06-01T06:46:00.774Z,92.00
2019-06-01T06:48:33.117Z,92.10
2019-06-01T06:51:02.881Z,91.10
2019-06-01T06:53:35.238Z,92.10
2019-06-01T06:56:05.098Z,92.60
2019-06-01T06:58:34.696Z,92.40
2019-06-01T07:01:05.496Z,92.20
2019-06-01T07:03:35.950Z,90.50
2019-06-01T07:06:07.888Z,91.30
2019-06-01T07:08:37.420Z,92.30
2019-06-01T07:11:07.393Z,91.30
2019-06-01T07:13:36.793Z,91.40
2019-06-01T07:16:06.305Z,91.80
2019-06-01T07:18:35.879Z,91.10
2019-06-01T07:21:05.370Z,90.70
2019-06-01T07:23:34.719Z,90.60
2019-06-01T07:26:04.163Z,88.90
2019-06-01T07:28:34.526Z,90.30
2019-06-01T07:31:03.880Z,89.20
2019-06-01T07:33:33.487Z,88.20
2019-06-01T07:36:02.791Z,87.50
2019-06-01T07:38:33.248Z,86.60
2019-06-01T07:41:02.823Z,87.70
2019-06-01T07:43:33.170Z,87.80
2019-06-01T07:46:02.741Z,87.10
2019-06-01T07:48:33.318Z,86.20
2019-06-01T07:51:02.845Z,85.70
2019-06-01T07:53:33.256Z,85.90
2019-06-01T07:56:02.659Z,84.90
2019-06-01T07:58:32.934Z,84.80
2019-06-01T08:01:02.496Z,84.50
2019-06-01T08:03:34.793Z,84.90
2019-06-01T08:06:03.102Z,85.70
2019-06-01T08:08:32.957Z,85.40
2019-06-01T08:11:02.356Z,85.00
2019-06-01T08:13:35.282Z,85.00
2019-06-01T08:16:02.906Z,84.70
2019-06-01T08:18:32.352Z,84.20
2019-06-01T08:21:01.846Z,84.40
2019-06-01T08:23:32.471Z,83.80
2019-06-01T08:26:02.300Z,82.10
2019-06-01T08:28:32.866Z,83.40
2019-06-01T08:31:02.304Z,82.30
2019-06-01T08:33:34.647Z,82.00
2019-06-01T08:36:02.994Z,82.00
2019-06-01T08:38:33.685Z,81.50
2019-06-01T08:41:03.192Z,81.60
2019-06-01T08:43:33.828Z,82.00
2019-06-01T08:46:03.573Z,80.60
2019-06-01T08:48:34.158Z,81.00
2019-06-01T08:51:03.778Z,81.10
2019-06-01T08:53:34.336Z,81.40
2019-06-01T08:56:03.668Z,81.10
2019-06-01T08:58:34.537Z,79.00
2019-06-01T09:01:04.289Z,78.90
2019-06-01T09:03:39.893Z,78.80
2019-06-01T09:06:05.735Z,78.50
2019-06-01T09:08:35.362Z,77.90
2019-06-01T09:11:04.856Z,76.50
2019-06-01T09:13:35.363Z,75.80
2019-06-01T09:16:05.559Z,76.80
2019-06-01T09:18:35.847Z,76.20
2019-06-01T09:21:05.457Z,76.20
2019-06-01T09:23:37.099Z,75.50
2019-06-01T09:26:05.873Z,76.10
2019-06-01T09:28:36.195Z,77.20
2019-06-01T09:31:05.767Z,77.60
2019-06-01T09:33:36.728Z,76.90
2019-06-01T09:36:06.290Z,76.10
2019-06-01T09:38:36.042Z,75.20
2019-06-01T09:41:05.509Z,74.00
2019-06-01T09:43:35.053Z,74.70
2019-06-01T09:46:04.512Z,74.50
2019-06-01T09:48:33.822Z,73.60
2019-06-01T09:51:03.138Z,74.60
2019-06-01T09:53:32.975Z,74.50
2019-06-01T09:56:04.050Z,74.00
2019-06-01T09:58:34.598Z,73.50
2019-06-01T10:01:04.168Z,73.60
2019-06-01T10:03:34.445Z,73.60
2019-06-01T10:06:04.260Z,73.20
2019-06-01T10:08:34.350Z,72.50
2019-06-01T10:11:03.833Z,71.90
2019-06-01T10:13:34.428Z,71.80
2019-06-01T10:16:04.037Z,71.80
2019-06-01T10:18:35.212Z,71.80
2019-06-01T10:21:04.684Z,72.00
2019-06-01T10:23:34.472Z,72.50
2019-06-01T10:26:04.125Z,73.10
2019-06-01T10:28:33.601Z,73.20
2019-06-01T10:31:03.086Z,73.20
2019-06-01T10:33:32.709Z,73.30
2019-06-01T10:36:19.166Z,73.00
2019-06-01T10:38:33.527Z,72.10
2019-06-01T10:41:02.966Z,73.30
2019-06-01T10:43:33.603Z,72.80
2019-06-01T10:46:04.309Z,72.30
2019-06-01T10:48:34.502Z,72.20
2019-06-01T10:51:03.942Z,71.30
2019-06-01T10:53:34.841Z,70.90
2019-06-01T10:56:04.308Z,70.90
2019-06-01T10:58:35.969Z,70.60
2019-06-01T11:01:04.822Z,71.00
2019-06-01T11:03:34.648Z,70.70
2019-06-01T11:06:04.439Z,71.90
2019-06-01T11:08:35.516Z,70.30
2019-06-01T11:11:05.003Z,71.00
2019-06-01T11:13:35.037Z,71.70
2019-06-01T11:16:04.618Z,71.60
2019-06-01T11:18:35.150Z,71.50
2019-06-01T11:21:04.894Z,70.70
2019-06-01T11:23:35.446Z,70.50
2019-06-01T11:26:05.076Z,69.90
2019-06-01T11:28:36.076Z,69.70
2019-06-01T11:31:06.139Z,70.30
2019-06-01T11:33:36.459Z,69.50
2019-06-01T11:36:05.783Z,69.90
2019-06-01T11:38:36.255Z,69.00
2019-06-01T11:41:05.906Z,69.40
2019-06-01T11:43:36.406Z,69.20
2019-06-01T11:46:05.829Z,70.40
2019-06-01T11:48:35.227Z,70.70
2019-06-01T11:51:05.645Z,70.10
2019-06-01T11:53:35.192Z,70.20
2019-06-01T11:56:04.541Z,70.00
2019-06-01T11:58:35.084Z,70.20
2019-06-01T12:01:04.510Z,69.50
2019-06-01T12:03:33.919Z,70.10
2019-06-01T12:06:03.304Z,69.90
2019-06-01T12:08:34.113Z,69.90
2019-06-01T12:11:04.111Z,69.50
2019-06-01T12:13:33.418Z,69.00
2019-06-01T12:16:02.762Z,69.30
2019-06-01T12:18:32.084Z,69.30
2019-06-01T12:21:01.388Z,69.50
2019-06-01T12:23:30.694Z,68.00
2019-06-01T12:26:00.123Z,67.70
2019-06-01T12:28:29.414Z,67.60
2019-06-01T12:30:58.730Z,66.70
2019-06-01T12:33:28.038Z,68.20
2019-06-01T12:35:57.427Z,67.90
2019-06-01T12:38:26.730Z,67.90
2019-06-01T12:40:56.095Z,67.70
2019-06-01T12:43:25.503Z,68.30
2019-06-01T12:46:06.973Z,68.30
2019-06-01T12:48:25.862Z,69.00
2019-06-01T12:50:55.205Z,68.20
2019-06-01T12:53:24.511Z,68.00
2019-06-01T12:55:53.846Z,68.30
2019-06-01T12:58:23.169Z,68.20
2019-06-01T13:00:52.598Z,68.40
2019-06-01T13:03:22.010Z,68.30
2019-06-01T13:05:51.898Z,67.70
2019-06-01T13:08:21.319Z,67.80
2019-06-01T13:10:51.735Z,67.70
2019-06-01T13:13:21.248Z,67.90
2019-06-01T13:15:51.407Z,68.10
2019-06-01T13:18:20.860Z,68.20
2019-06-01T13:20:51.551Z,68.50
2019-06-01T13:23:21.045Z,68.30
2019-06-01T13:25:50.356Z,67.90
2019-06-01T13:28:19.821Z,67.60
2019-06-01T13:30:49.728Z,67.70
2019-06-01T13:33:20.331Z,67.70
2019-06-01T13:35:50.624Z,67.70
2019-06-01T13:38:20.245Z,67.40
2019-06-01T13:40:49.605Z,66.90
2019-06-01T13:43:18.935Z,67.60
2019-06-01T13:45:49.303Z,67.70
2019-06-01T13:48:18.756Z,67.10
2019-06-01T13:50:48.043Z,67.30
2019-06-01T13:53:18.464Z,67.40
2019-06-01T13:55:48.387Z,67.20
2019-06-01T13:58:17.840Z,67.90
2019-06-01T14:00:48.305Z,68.10
2019-06-01T14:03:17.882Z,67.70
2019-06-01T14:05:47.376Z,68.10
2019-06-01T14:08:28.372Z,68.20
2019-06-01T14:10:47.744Z,67.90
2019-06-01T14:13:17.071Z,68.20
2019-06-01T14:15:47.343Z,68.40
2019-06-01T14:18:16.839Z,68.20
2019-06-01T14:20:47.481Z,68.10
2019-06-01T14:23:17.498Z,68.10
2019-06-01T14:25:47.997Z,68.40
2019-06-01T14:28:17.381Z,68.80
2019-06-01T14:30:48.347Z,68.30
2019-06-01T14:33:17.834Z,68.10
2019-06-01T14:35:48.298Z,68.20
2019-06-01T14:38:17.925Z,68.10
2019-06-01T14:40:47.323Z,67.90
2019-06-01T14:43:16.660Z,67.40
2019-06-01T14:45:47.213Z,67.20
2019-06-01T14:48:16.768Z,67.60
2019-06-01T14:50:47.428Z,67.70
2019-06-01T14:53:16.868Z,67.10
2019-06-01T14:55:47.549Z,66.90
2019-06-01T14:58:17.090Z,67.50
2019-06-01T15:03:37.675Z,68.50
2019-06-01T15:06:08.051Z,68.60
2019-06-01T15:08:37.475Z,68.80
2019-06-01T15:11:06.792Z,68.60
2019-06-01T15:13:36.211Z,68.90
2019-06-01T15:16:05.595Z,68.80
2019-06-01T15:18:34.931Z,68.50
2019-06-01T15:21:04.349Z,69.00
2019-06-01T15:23:33.818Z,68.60
2019-06-01T15:26:03.138Z,68.70
2019-06-01T15:28:32.615Z,68.30
2019-06-01T15:31:03.256Z,68.70
2019-06-01T15:33:32.739Z,68.70
2019-06-01T15:36:02.128Z,68.90
2019-06-01T15:38:31.472Z,69.50
2019-06-01T15:41:00.792Z,69.50
2019-06-01T15:43:30.163Z,69.20
2019-06-01T15:45:59.837Z,69.40
2019-06-01T15:48:29.346Z,69.80
2019-06-01T15:51:01.392Z,70.40
2019-06-01T15:53:29.670Z,70.00
2019-06-01T15:55:59.216Z,69.70
2019-06-01T15:58:28.586Z,69.60
2019-06-01T16:00:58.984Z,69.90
2019-06-01T16:03:28.579Z,70.10
2019-06-01T16:05:59.102Z,70.70
2019-06-01T16:08:28.541Z,70.80
2019-06-01T16:11:02.018Z,70.00
2019-06-01T16:13:28.903Z,70.20
2019-06-01T16:16:00.187Z,69.40
2019-06-01T16:18:29.208Z,70.30
2019-06-01T16:20:58.515Z,70.50
2019-06-01T16:23:28.308Z,70.60
2019-06-01T16:26:10.857Z,70.10
2019-06-01T16:28:28.694Z,69.80
2019-06-01T16:30:58.531Z,70.40
2019-06-01T16:33:28.075Z,70.40
2019-06-01T16:35:57.408Z,69.90
2019-06-01T16:38:27.691Z,70.10
2019-06-01T16:40:59.170Z,70.20
2019-06-01T16:43:28.586Z,70.70
2019-06-01T16:45:57.988Z,70.60
2019-06-01T16:48:27.335Z,71.10
2019-06-01T16:50:57.652Z,70.90
2019-06-01T16:53:27.250Z,70.90
2019-06-01T16:55:57.823Z,70.90
2019-06-01T16:58:27.217Z,70.90
2019-06-01T17:00:56.619Z,71.70
2019-06-01T17:03:25.953Z,72.20
2019-06-01T17:05:56.563Z,71.80
2019-06-01T17:08:26.058Z,71.70
2019-06-01T17:10:56.602Z,72.40
2019-06-01T17:13:27.050Z,71.70
2019-06-01T17:15:56.883Z,72.40
2019-06-01T17:18:26.234Z,73.20
2019-06-01T17:20:55.618Z,73.70
2019-06-01T17:23:27.991Z,73.90
2019-06-01T17:25:56.211Z,74.50
2019-06-01T17:28:25.594Z,74.40
2019-06-01T17:30:55.188Z,74.60
2019-06-01T17:33:24.689Z,74.90
2019-06-01T17:35:54.047Z,75.40
2019-06-01T17:38:23.495Z,75.30
2019-06-01T17:40:52.811Z,75.80
2019-06-01T17:43:22.215Z,76.20
2019-06-01T17:45:51.546Z,75.60
2019-06-01T17:48:26.467Z,76.40
2019-06-01T17:50:52.319Z,76.00
2019-06-01T17:53:21.626Z,76.10
2019-06-01T17:55:51.169Z,76.20
2019-06-01T17:58:20.589Z,76.30
2019-06-01T18:00:50.290Z,76.80
2019-06-01T18:03:19.758Z,77.00
2019-06-01T18:05:49.272Z,77.30
2019-06-01T18:08:18.680Z,77.40
2019-06-01T18:10:54.263Z,77.50
2019-06-01T18:13:19.209Z,77.50
2019-06-01T18:15:50.086Z,77.40
2019-06-01T18:18:19.695Z,77.80
2019-06-01T18:20:49.073Z,78.10
2019-06-01T18:23:18.405Z,78.00
2019-06-01T18:25:47.745Z,78.20
2019-06-01T18:28:19.774Z,78.40
2019-06-01T18:30:49.529Z,79.40
2019-06-01T18:33:19.150Z,79.60
2019-06-01T18:35:48.419Z,80.90
2019-06-01T18:38:17.712Z,81.00
2019-06-01T18:40:47.049Z,80.40
2019-06-01T18:43:18.453Z,80.70
2019-06-01T18:45:48.363Z,81.10
2019-06-01T18:48:18.590Z,80.10
2019-06-01T18:50:47.912Z,79.20
2019-06-01T18:53:17.212Z,79.00
2019-06-01T18:55:46.468Z,78.40
2019-06-01T18:58:15.864Z,78.40
2019-06-01T19:00:45.364Z,78.30
2019-06-01T19:03:15.483Z,78.20
2019-06-01T19:05:45.246Z,78.30
2019-06-01T19:08:16.278Z,77.70
2019-06-01T19:10:45.986Z,77.60
2019-06-01T19:13:16.017Z,77.80
2019-06-01T19:15:45.427Z,78.00
2019-06-01T19:18:14.833Z,78.30
2019-06-01T19:20:44.126Z,79.00
2019-06-01T19:23:14.779Z,78.80
2019-06-01T19:25:45.235Z,78.70
2019-06-01T19:28:15.270Z,78.90
2019-06-01T19:30:44.842Z,78.80
2019-06-01T19:33:17.260Z,79.60
2019-06-01T19:35:45.286Z,80.00
2019-06-01T19:38:15.496Z,80.30
2019-06-01T19:40:44.927Z,81.00
2019-06-01T19:43:15.567Z,81.10
2019-06-01T19:45:45.054Z,81.10
2019-06-01T19:48:14.699Z,80.10
2019-06-01T19:50:44.088Z,80.90
2019-06-01T19:53:14.644Z,81.20
2019-06-01T19:55:44.335Z,81.10
2019-06-01T19:58:14.326Z,80.60
2019-06-01T20:00:44.607Z,81.10
2019-06-01T20:03:14.766Z,81.10
2019-06-01T20:05:45.079Z,80.90
2019-06-01T20:08:14.402Z,81.20
2019-06-01T20:10:43.726Z,81.40
2019-06-01T20:13:13.131Z,81.40
2019-06-01T20:15:46.559Z,81.30
2019-06-01T20:18:19.200Z,81.60
2019-06-01T20:20:48.701Z,82.10
2019-06-01T20:23:19.553Z,82.10
2019-06-01T20:25:48.897Z,82.30
2019-06-01T20:28:18.171Z,82.20
2019-06-01T20:30:47.922Z,82.40
2019-06-01T20:33:18.285Z,82.70
2019-06-01T20:35:48.437Z,83.40
2019-06-01T20:38:18.495Z,83.50
2019-06-01T20:40:48.197Z,83.50
2019-06-01T20:43:18.604Z,83.60
2019-06-01T20:45:48.131Z,83.20
2019-06-01T20:48:18.818Z,83.60
2019-06-01T20:50:48.229Z,84.00
2019-06-01T20:53:18.919Z,83.90
2019-06-01T20:55:49.428Z,83.80
2019-06-01T20:58:21.290Z,84.00
2019-06-01T21:00:49.665Z,84.00
2019-06-01T21:03:19.766Z,83.30
2019-06-01T21:05:49.105Z,83.30
2019-06-01T21:08:18.455Z,82.90
2019-06-01T21:10:47.743Z,82.90
2019-06-01T21:13:18.087Z,83.00
2019-06-01T21:15:50.480Z,83.40
2019-06-01T21:18:20.959Z,83.70
2019-06-01T21:20:50.308Z,84.00
2019-06-01T21:23:20.730Z,84.30
2019-06-01T21:25:50.191Z,84.20
2019-06-01T21:28:20.534Z,84.40
2019-06-01T21:30:50.466Z,84.30
2019-06-01T21:33:19.908Z,83.90
2019-06-01T21:35:50.427Z,84.30
2019-06-01T21:38:19.697Z,84.50
2019-06-01T21:40:48.983Z,84.50
2019-06-01T21:43:25.166Z,85.10
2019-06-01T21:45:49.306Z,84.80
2019-06-01T21:48:19.746Z,85.10
2019-06-01T21:50:49.175Z,84.70
2019-06-01T21:53:19.820Z,84.90
2019-06-01T21:55:49.337Z,85.10
2019-06-01T21:58:18.876Z,85.30
2019-06-01T22:00:48.776Z,85.30
2019-06-01T22:03:19.106Z,85.20
2019-06-01T22:05:48.457Z,85.30
2019-06-01T22:08:19.037Z,85.50
2019-06-01T22:10:48.376Z,85.80
2019-06-01T22:13:21.086Z,85.70
2019-06-01T22:15:48.633Z,85.70
2019-06-01T22:18:17.992Z,85.70
2019-06-01T22:20:48.223Z,85.70
2019-06-01T22:23:17.948Z,85.80
2019-06-01T22:25:47.351Z,86.10
2019-06-01T22:28:16.641Z,86.30
2019-06-01T22:30:47.092Z,86.20
2019-06-01T22:33:16.367Z,86.10
2019-06-01T22:35:45.665Z,86.00
2019-06-01T22:38:14.942Z,86.40
2019-06-01T22:40:44.207Z,86.40
2019-06-01T22:43:13.504Z,86.20
2019-06-01T22:45:42.822Z,86.40
2019-06-01T22:48:12.119Z,86.60
2019-06-01T22:50:41.374Z,86.80
2019-06-01T22:53:10.676Z,86.90
2019-06-01T22:55:39.970Z,87.10
2019-06-01T22:58:09.249Z,87.30
2019-06-01T23:00:38.531Z,87.40
2019-06-01T23:03:07.829Z,87.50
2019-06-01T23:05:37.097Z,87.10
2019-06-01T23:08:06.370Z,86.90
2019-06-01T23:10:35.715Z,87.50
2019-06-01T23:13:04.986Z,87.50
2019-06-01T23:15:34.288Z,87.50
2019-06-01T23:18:03.589Z,87.70
2019-06-01T23:20:32.860Z,88.10
2019-06-01T23:23:02.131Z,88.00
2019-06-01T23:25:32.458Z,87.90
2019-06-01T23:28:02.027Z,88.00
2019-06-01T23:30:32.401Z,88.20
2019-06-01T23:33:01.801Z,88.40
2019-06-01T23:35:31.160Z,88.30
2019-06-01T23:38:00.456Z,88.30
2019-06-01T23:40:30.785Z,88.60
2019-06-01T23:43:00.085Z,88.60
2019-06-01T23:45:29.373Z,88.60
2019-06-01T23:47:58.658Z,88.70
2019-06-01T23:50:29.158Z,88.30
2019-06-01T23:53:12.789Z,88.30
2019-06-01T23:55:29.873Z,88.50
2019-06-01T23:57:59.189Z,88.40
